sensor_id;sensor_type;location;lat;lon;timestamp;P1;durP1;ratioP1;P2;durP2;ratioP2
54177;SDS011;40085;53.004;6.770;2023-03-23T00:00:04;7.43;;;4.30;;
54177;SDS011;40085;53.004;6.770;2023-03-23T00:02:31;4.75;;;3.85;;
54177;SDS011;40085;53.004;6.770;2023-03-23T00:05:02;7.43;;;4.00;;
54177;SDS011;40085;53.004;6.770;2023-03-23T00:07:29;4.65;;;3.63;;
54177;SDS011;40085;53.004;6.770;2023-03-23T00:09:55;5.25;;;3.65;;
54177;SDS011;40085;53.004;6.770;2023-03-23T00:12:25;5.20;;;3.20;;
54177;SDS011;40085;53.004;6.770;2023-03-23T00:15:00;4.57;;;3.40;;
54177;SDS011;40085;53.004;6.770;2023-03-23T00:17:27;6.45;;;4.55;;
54177;SDS011;40085;53.004;6.770;2023-03-23T00:19:53;4.70;;;3.80;;
54177;SDS011;40085;53.004;6.770;2023-03-23T00:22:19;7.53;;;3.65;;
54177;SDS011;40085;53.004;6.770;2023-03-23T00:24:46;4.13;;;3.10;;
54177;SDS011;40085;53.004;6.770;2023-03-23T00:27:15;8.10;;;3.83;;
54177;SDS011;40085;53.004;6.770;2023-03-23T00:29:41;6.15;;;4.13;;
54177;SDS011;40085;53.004;6.770;2023-03-23T00:32:07;7.53;;;3.67;;
54177;SDS011;40085;53.004;6.770;2023-03-23T00:34:39;5.78;;;4.00;;
54177;SDS011;40085;53.004;6.770;2023-03-23T00:37:08;4.60;;;3.47;;
54177;SDS011;40085;53.004;6.770;2023-03-23T00:39:34;6.38;;;3.58;;
54177;SDS011;40085;53.004;6.770;2023-03-23T00:42:03;8.13;;;3.38;;
54177;SDS011;40085;53.004;6.770;2023-03-23T00:44:30;4.72;;;3.75;;
54177;SDS011;40085;53.004;6.770;2023-03-23T00:46:58;5.75;;;3.80;;
54177;SDS011;40085;53.004;6.770;2023-03-23T00:49:24;5.45;;;4.10;;
54177;SDS011;40085;53.004;6.770;2023-03-23T00:51:51;6.07;;;3.83;;
54177;SDS011;40085;53.004;6.770;2023-03-23T00:54:22;5.13;;;3.70;;
54177;SDS011;40085;53.004;6.770;2023-03-23T00:56:49;3.78;;;2.50;;
54177;SDS011;40085;53.004;6.770;2023-03-23T00:59:16;7.05;;;3.42;;
54177;SDS011;40085;53.004;6.770;2023-03-23T01:01:42;3.78;;;3.28;;
54177;SDS011;40085;53.004;6.770;2023-03-23T01:04:07;6.05;;;3.38;;
54177;SDS011;40085;53.004;6.770;2023-03-23T01:06:37;5.53;;;2.88;;
54177;SDS011;40085;53.004;6.770;2023-03-23T01:09:06;6.93;;;3.55;;
54177;SDS011;40085;53.004;6.770;2023-03-23T01:11:32;8.27;;;3.75;;
54177;SDS011;40085;53.004;6.770;2023-03-23T01:13:58;6.53;;;3.25;;
54177;SDS011;40085;53.004;6.770;2023-03-23T01:16:25;3.83;;;2.70;;
54177;SDS011;40085;53.004;6.770;2023-03-23T01:18:50;3.75;;;2.88;;
54177;SDS011;40085;53.004;6.770;2023-03-23T01:21:17;6.70;;;3.28;;
54177;SDS011;40085;53.004;6.770;2023-03-23T01:23:44;4.03;;;2.50;;
54177;SDS011;40085;53.004;6.770;2023-03-23T01:28:37;4.03;;;2.92;;
54177;SDS011;40085;53.004;6.770;2023-03-23T01:31:05;5.47;;;2.45;;
54177;SDS011;40085;53.004;6.770;2023-03-23T01:33:32;6.90;;;2.63;;
54177;SDS011;40085;53.004;6.770;2023-03-23T01:36:02;3.85;;;2.13;;
54177;SDS011;40085;53.004;6.770;2023-03-23T01:40:56;5.00;;;2.50;;
54177;SDS011;40085;53.004;6.770;2023-03-23T01:43:21;3.70;;;2.35;;
54177;SDS011;40085;53.004;6.770;2023-03-23T01:45:47;4.65;;;2.40;;
54177;SDS011;40085;53.004;6.770;2023-03-23T01:48:23;2.45;;;1.80;;
54177;SDS011;40085;53.004;6.770;2023-03-23T01:51:08;3.53;;;2.00;;
54177;SDS011;40085;53.004;6.770;2023-03-23T01:53:38;4.57;;;2.08;;
54177;SDS011;40085;53.004;6.770;2023-03-23T01:56:09;2.28;;;1.80;;
54177;SDS011;40085;53.004;6.770;2023-03-23T01:58:38;3.22;;;1.90;;
54177;SDS011;40085;53.004;6.770;2023-03-23T02:01:06;5.97;;;2.28;;
54177;SDS011;40085;53.004;6.770;2023-03-23T02:03:36;3.10;;;1.95;;
54177;SDS011;40085;53.004;6.770;2023-03-23T02:06:04;5.70;;;1.83;;
54177;SDS011;40085;53.004;6.770;2023-03-23T02:08:30;6.22;;;2.00;;
54177;SDS011;40085;53.004;6.770;2023-03-23T02:10:58;3.55;;;2.30;;
54177;SDS011;40085;53.004;6.770;2023-03-23T02:13:24;5.88;;;2.10;;
54177;SDS011;40085;53.004;6.770;2023-03-23T02:15:54;3.88;;;1.83;;
54177;SDS011;40085;53.004;6.770;2023-03-23T02:26:41;3.53;;;1.58;;
54177;SDS011;40085;53.004;6.770;2023-03-23T02:29:42;4.50;;;1.60;;
54177;SDS011;40085;53.004;6.770;2023-03-23T02:34:49;4.32;;;1.70;;
54177;SDS011;40085;53.004;6.770;2023-03-23T02:37:21;5.68;;;2.28;;
54177;SDS011;40085;53.004;6.770;2023-03-23T02:40:03;2.53;;;1.73;;
54177;SDS011;40085;53.004;6.770;2023-03-23T02:42:35;3.28;;;1.67;;
54177;SDS011;40085;53.004;6.770;2023-03-23T02:45:05;3.80;;;1.75;;
54177;SDS011;40085;53.004;6.770;2023-03-23T02:47:33;2.05;;;1.60;;
54177;SDS011;40085;53.004;6.770;2023-03-23T02:50:03;4.00;;;1.90;;
54177;SDS011;40085;53.004;6.770;2023-03-23T02:52:31;4.22;;;1.92;;
54177;SDS011;40085;53.004;6.770;2023-03-23T02:54:59;3.60;;;1.85;;
54177;SDS011;40085;53.004;6.770;2023-03-23T02:57:27;2.25;;;1.48;;
54177;SDS011;40085;53.004;6.770;2023-03-23T02:59:53;5.72;;;1.65;;
54177;SDS011;40085;53.004;6.770;2023-03-23T03:02:23;2.45;;;1.75;;
54177;SDS011;40085;53.004;6.770;2023-03-23T03:04:59;7.07;;;1.77;;
54177;SDS011;40085;53.004;6.770;2023-03-23T03:13:11;2.67;;;1.33;;
54177;SDS011;40085;53.004;6.770;2023-03-23T03:15:46;4.95;;;1.90;;
54177;SDS011;40085;53.004;6.770;2023-03-23T03:18:23;3.53;;;1.80;;
54177;SDS011;40085;53.004;6.770;2023-03-23T03:20:58;2.47;;;1.67;;
54177;SDS011;40085;53.004;6.770;2023-03-23T03:23:27;3.55;;;1.50;;
54177;SDS011;40085;53.004;6.770;2023-03-23T03:25:54;2.97;;;1.60;;
54177;SDS011;40085;53.004;6.770;2023-03-23T03:28:22;2.58;;;1.45;;
54177;SDS011;40085;53.004;6.770;2023-03-23T03:30:49;3.47;;;1.58;;
54177;SDS011;40085;53.004;6.770;2023-03-23T03:33:19;3.35;;;1.40;;
54177;SDS011;40085;53.004;6.770;2023-03-23T03:35:50;2.30;;;1.20;;
54177;SDS011;40085;53.004;6.770;2023-03-23T03:38:17;3.90;;;1.63;;
54177;SDS011;40085;53.004;6.770;2023-03-23T03:40:42;1.75;;;1.25;;
54177;SDS011;40085;53.004;6.770;2023-03-23T03:43:08;1.80;;;1.27;;
54177;SDS011;40085;53.004;6.770;2023-03-23T03:45:34;3.67;;;1.67;;
54177;SDS011;40085;53.004;6.770;2023-03-23T03:47:59;2.20;;;1.17;;
54177;SDS011;40085;53.004;6.770;2023-03-23T03:50:26;4.22;;;1.77;;
54177;SDS011;40085;53.004;6.770;2023-03-23T03:52:52;2.97;;;1.70;;
54177;SDS011;40085;53.004;6.770;2023-03-23T03:55:18;3.00;;;1.73;;
54177;SDS011;40085;53.004;6.770;2023-03-23T03:57:44;1.48;;;0.95;;
54177;SDS011;40085;53.004;6.770;2023-03-23T04:00:10;2.28;;;1.58;;
54177;SDS011;40085;53.004;6.770;2023-03-23T04:02:43;4.38;;;1.50;;
54177;SDS011;40085;53.004;6.770;2023-03-23T04:05:15;2.63;;;1.67;;
54177;SDS011;40085;53.004;6.770;2023-03-23T04:07:42;2.50;;;1.70;;
54177;SDS011;40085;53.004;6.770;2023-03-23T04:10:08;2.50;;;1.40;;
54177;SDS011;40085;53.004;6.770;2023-03-23T04:12:36;4.15;;;1.15;;
54177;SDS011;40085;53.004;6.770;2023-03-23T04:15:02;2.80;;;1.83;;
54177;SDS011;40085;53.004;6.770;2023-03-23T04:17:28;2.88;;;1.50;;
54177;SDS011;40085;53.004;6.770;2023-03-23T04:19:54;1.92;;;1.38;;
54177;SDS011;40085;53.004;6.770;2023-03-23T04:22:25;2.95;;;1.70;;
54177;SDS011;40085;53.004;6.770;2023-03-23T04:24:55;4.40;;;2.67;;
54177;SDS011;40085;53.004;6.770;2023-03-23T04:27:26;2.15;;;1.52;;
54177;SDS011;40085;53.004;6.770;2023-03-23T04:29:53;4.45;;;1.95;;
54177;SDS011;40085;53.004;6.770;2023-03-23T04:32:24;3.83;;;2.40;;
54177;SDS011;40085;53.004;6.770;2023-03-23T04:34:54;3.72;;;2.00;;
54177;SDS011;40085;53.004;6.770;2023-03-23T04:37:22;3.20;;;1.65;;
54177;SDS011;40085;53.004;6.770;2023-03-23T04:39:54;6.38;;;1.90;;
54177;SDS011;40085;53.004;6.770;2023-03-23T04:42:25;4.32;;;2.15;;
54177;SDS011;40085;53.004;6.770;2023-03-23T04:44:52;3.85;;;2.05;;
54177;SDS011;40085;53.004;6.770;2023-03-23T04:47:19;3.28;;;1.50;;
54177;SDS011;40085;53.004;6.770;2023-03-23T04:49:44;2.28;;;2.03;;
54177;SDS011;40085;53.004;6.770;2023-03-23T04:52:10;6.60;;;2.35;;
54177;SDS011;40085;53.004;6.770;2023-03-23T04:54:36;6.03;;;2.45;;
54177;SDS011;40085;53.004;6.770;2023-03-23T04:57:03;3.03;;;2.05;;
54177;SDS011;40085;53.004;6.770;2023-03-23T04:59:28;3.17;;;2.00;;
54177;SDS011;40085;53.004;6.770;2023-03-23T05:01:55;0.70;;;0.70;;
54177;SDS011;40085;53.004;6.770;2023-03-23T05:04:22;2.58;;;0.60;;
54177;SDS011;40085;53.004;6.770;2023-03-23T05:06:50;1.40;;;0.88;;
54177;SDS011;40085;53.004;6.770;2023-03-23T05:09:18;3.67;;;1.55;;
54177;SDS011;40085;53.004;6.770;2023-03-23T05:11:44;3.38;;;1.00;;
54177;SDS011;40085;53.004;6.770;2023-03-23T05:14:10;2.53;;;1.13;;
54177;SDS011;40085;53.004;6.770;2023-03-23T05:16:36;1.98;;;0.90;;
54177;SDS011;40085;53.004;6.770;2023-03-23T05:19:02;2.20;;;1.08;;
54177;SDS011;40085;53.004;6.770;2023-03-23T05:21:29;1.52;;;0.73;;
54177;SDS011;40085;53.004;6.770;2023-03-23T05:23:55;0.77;;;0.55;;
54177;SDS011;40085;53.004;6.770;2023-03-23T05:26:21;2.40;;;0.95;;
54177;SDS011;40085;53.004;6.770;2023-03-23T05:28:50;1.98;;;0.95;;
54177;SDS011;40085;53.004;6.770;2023-03-23T05:31:18;3.08;;;0.85;;
54177;SDS011;40085;53.004;6.770;2023-03-23T05:33:44;0.98;;;0.55;;
54177;SDS011;40085;53.004;6.770;2023-03-23T05:36:10;5.20;;;0.95;;
54177;SDS011;40085;53.004;6.770;2023-03-23T05:38:38;5.97;;;0.98;;
54177;SDS011;40085;53.004;6.770;2023-03-23T05:41:07;3.50;;;1.00;;
54177;SDS011;40085;53.004;6.770;2023-03-23T05:43:33;2.15;;;0.95;;
54177;SDS011;40085;53.004;6.770;2023-03-23T05:45:59;2.75;;;0.70;;
54177;SDS011;40085;53.004;6.770;2023-03-23T05:48:25;2.15;;;0.90;;
54177;SDS011;40085;53.004;6.770;2023-03-23T05:50:51;3.63;;;1.00;;
54177;SDS011;40085;53.004;6.770;2023-03-23T05:53:17;2.45;;;1.10;;
54177;SDS011;40085;53.004;6.770;2023-03-23T05:55:42;1.52;;;0.82;;
54177;SDS011;40085;53.004;6.770;2023-03-23T05:58:08;2.95;;;0.88;;
54177;SDS011;40085;53.004;6.770;2023-03-23T06:00:34;4.90;;;1.23;;
54177;SDS011;40085;53.004;6.770;2023-03-23T06:03:00;1.85;;;0.77;;
54177;SDS011;40085;53.004;6.770;2023-03-23T06:05:26;4.07;;;1.13;;
54177;SDS011;40085;53.004;6.770;2023-03-23T06:07:52;3.65;;;1.08;;
54177;SDS011;40085;53.004;6.770;2023-03-23T06:10:18;6.97;;;1.38;;
54177;SDS011;40085;53.004;6.770;2023-03-23T06:12:44;3.97;;;1.27;;
54177;SDS011;40085;53.004;6.770;2023-03-23T06:15:10;2.70;;;1.27;;
54177;SDS011;40085;53.004;6.770;2023-03-23T06:17:36;2.97;;;0.95;;
54177;SDS011;40085;53.004;6.770;2023-03-23T06:20:03;6.63;;;1.95;;
54177;SDS011;40085;53.004;6.770;2023-03-23T06:22:35;3.67;;;1.00;;
54177;SDS011;40085;53.004;6.770;2023-03-23T06:25:08;1.67;;;0.93;;
54177;SDS011;40085;53.004;6.770;2023-03-23T06:27:36;2.95;;;1.30;;
54177;SDS011;40085;53.004;6.770;2023-03-23T06:30:02;3.03;;;1.20;;
54177;SDS011;40085;53.004;6.770;2023-03-23T06:32:30;5.03;;;1.20;;
54177;SDS011;40085;53.004;6.770;2023-03-23T06:34:57;3.05;;;1.10;;
54177;SDS011;40085;53.004;6.770;2023-03-23T06:37:22;4.57;;;1.55;;
54177;SDS011;40085;53.004;6.770;2023-03-23T06:39:49;4.18;;;0.95;;
54177;SDS011;40085;53.004;6.770;2023-03-23T06:42:15;4.55;;;1.00;;
54177;SDS011;40085;53.004;6.770;2023-03-23T06:44:41;1.75;;;0.90;;
54177;SDS011;40085;53.004;6.770;2023-03-23T06:47:07;1.77;;;0.70;;
54177;SDS011;40085;53.004;6.770;2023-03-23T06:49:33;3.20;;;0.90;;
54177;SDS011;40085;53.004;6.770;2023-03-23T06:51:59;5.45;;;1.42;;
54177;SDS011;40085;53.004;6.770;2023-03-23T06:54:26;5.07;;;1.45;;
54177;SDS011;40085;53.004;6.770;2023-03-23T06:56:52;3.70;;;1.10;;
54177;SDS011;40085;53.004;6.770;2023-03-23T06:59:18;1.08;;;0.80;;
54177;SDS011;40085;53.004;6.770;2023-03-23T07:01:44;5.93;;;1.50;;
54177;SDS011;40085;53.004;6.770;2023-03-23T07:04:11;9.63;;;1.65;;
54177;SDS011;40085;53.004;6.770;2023-03-23T07:06:37;8.30;;;1.13;;
54177;SDS011;40085;53.004;6.770;2023-03-23T07:09:03;9.40;;;1.20;;
54177;SDS011;40085;53.004;6.770;2023-03-23T07:11:29;3.75;;;1.52;;
54177;SDS011;40085;53.004;6.770;2023-03-23T07:13:54;8.32;;;1.40;;
54177;SDS011;40085;53.004;6.770;2023-03-23T07:16:20;7.70;;;1.48;;
54177;SDS011;40085;53.004;6.770;2023-03-23T07:18:46;4.97;;;1.00;;
54177;SDS011;40085;53.004;6.770;2023-03-23T07:21:11;7.90;;;1.27;;
54177;SDS011;40085;53.004;6.770;2023-03-23T07:23:37;7.65;;;2.22;;
54177;SDS011;40085;53.004;6.770;2023-03-23T07:26:03;6.55;;;1.50;;
54177;SDS011;40085;53.004;6.770;2023-03-23T07:28:29;3.50;;;1.38;;
54177;SDS011;40085;53.004;6.770;2023-03-23T07:30:55;10.93;;;2.20;;
54177;SDS011;40085;53.004;6.770;2023-03-23T07:33:20;7.97;;;1.70;;
54177;SDS011;40085;53.004;6.770;2023-03-23T07:35:46;8.43;;;2.42;;
54177;SDS011;40085;53.004;6.770;2023-03-23T07:38:12;8.88;;;1.73;;
54177;SDS011;40085;53.004;6.770;2023-03-23T07:40:38;15.82;;;1.33;;
54177;SDS011;40085;53.004;6.770;2023-03-23T07:43:04;5.35;;;1.48;;
54177;SDS011;40085;53.004;6.770;2023-03-23T07:45:30;8.07;;;1.40;;
54177;SDS011;40085;53.004;6.770;2023-03-23T07:47:56;4.65;;;1.00;;
54177;SDS011;40085;53.004;6.770;2023-03-23T07:50:22;5.75;;;1.75;;
54177;SDS011;40085;53.004;6.770;2023-03-23T07:52:49;6.47;;;1.52;;
54177;SDS011;40085;53.004;6.770;2023-03-23T07:55:19;2.70;;;1.27;;
54177;SDS011;40085;53.004;6.770;2023-03-23T07:57:45;8.73;;;1.70;;
54177;SDS011;40085;53.004;6.770;2023-03-23T08:00:12;19.88;;;1.42;;
54177;SDS011;40085;53.004;6.770;2023-03-23T08:02:50;6.38;;;1.60;;
54177;SDS011;40085;53.004;6.770;2023-03-23T08:05:17;8.88;;;1.63;;
54177;SDS011;40085;53.004;6.770;2023-03-23T08:07:44;6.95;;;1.88;;
54177;SDS011;40085;53.004;6.770;2023-03-23T08:10:10;4.82;;;1.38;;
54177;SDS011;40085;53.004;6.770;2023-03-23T08:12:38;5.70;;;1.50;;
54177;SDS011;40085;53.004;6.770;2023-03-23T08:15:04;9.65;;;1.95;;
54177;SDS011;40085;53.004;6.770;2023-03-23T08:17:31;7.43;;;1.45;;
54177;SDS011;40085;53.004;6.770;2023-03-23T08:19:58;5.53;;;1.05;;
54177;SDS011;40085;53.004;6.770;2023-03-23T08:22:23;8.45;;;1.88;;
54177;SDS011;40085;53.004;6.770;2023-03-23T08:24:49;6.38;;;1.58;;
54177;SDS011;40085;53.004;6.770;2023-03-23T08:27:15;6.75;;;1.33;;
54177;SDS011;40085;53.004;6.770;2023-03-23T08:29:41;8.93;;;1.83;;
54177;SDS011;40085;53.004;6.770;2023-03-23T08:32:09;8.52;;;2.05;;
54177;SDS011;40085;53.004;6.770;2023-03-23T08:34:35;10.45;;;1.90;;
54177;SDS011;40085;53.004;6.770;2023-03-23T08:37:01;5.25;;;1.30;;
54177;SDS011;40085;53.004;6.770;2023-03-23T08:39:28;14.52;;;1.85;;
54177;SDS011;40085;53.004;6.770;2023-03-23T08:41:55;5.50;;;2.00;;
54177;SDS011;40085;53.004;6.770;2023-03-23T08:44:20;6.70;;;1.63;;
54177;SDS011;40085;53.004;6.770;2023-03-23T08:46:46;6.90;;;1.58;;
54177;SDS011;40085;53.004;6.770;2023-03-23T08:49:12;9.82;;;1.65;;
54177;SDS011;40085;53.004;6.770;2023-03-23T08:51:37;7.88;;;1.95;;
54177;SDS011;40085;53.004;6.770;2023-03-23T08:54:03;13.63;;;1.77;;
54177;SDS011;40085;53.004;6.770;2023-03-23T08:56:29;5.07;;;1.88;;
54177;SDS011;40085;53.004;6.770;2023-03-23T08:58:54;11.77;;;1.92;;
54177;SDS011;40085;53.004;6.770;2023-03-23T09:01:20;6.38;;;1.77;;
54177;SDS011;40085;53.004;6.770;2023-03-23T09:03:45;8.30;;;2.22;;
54177;SDS011;40085;53.004;6.770;2023-03-23T09:06:11;13.98;;;2.58;;
54177;SDS011;40085;53.004;6.770;2023-03-23T09:08:37;7.85;;;2.80;;
54177;SDS011;40085;53.004;6.770;2023-03-23T09:11:05;3.92;;;1.45;;
54177;SDS011;40085;53.004;6.770;2023-03-23T09:13:33;14.43;;;1.77;;
54177;SDS011;40085;53.004;6.770;2023-03-23T09:15:59;6.80;;;1.90;;
54177;SDS011;40085;53.004;6.770;2023-03-23T09:18:25;6.95;;;2.30;;
54177;SDS011;40085;53.004;6.770;2023-03-23T09:20:51;8.88;;;1.33;;
54177;SDS011;40085;53.004;6.770;2023-03-23T09:23:18;5.35;;;2.55;;
54177;SDS011;40085;53.004;6.770;2023-03-23T09:25:45;12.52;;;2.38;;
54177;SDS011;40085;53.004;6.770;2023-03-23T09:28:11;8.25;;;1.75;;
54177;SDS011;40085;53.004;6.770;2023-03-23T09:30:39;12.50;;;1.70;;
54177;SDS011;40085;53.004;6.770;2023-03-23T09:33:05;5.40;;;1.63;;
54177;SDS011;40085;53.004;6.770;2023-03-23T09:35:33;8.93;;;2.00;;
54177;SDS011;40085;53.004;6.770;2023-03-23T09:38:00;8.15;;;2.25;;
54177;SDS011;40085;53.004;6.770;2023-03-23T09:40:29;5.93;;;1.65;;
54177;SDS011;40085;53.004;6.770;2023-03-23T09:48:36;4.97;;;1.25;;
54177;SDS011;40085;53.004;6.770;2023-03-23T09:51:21;6.63;;;1.95;;
54177;SDS011;40085;53.004;6.770;2023-03-23T09:54:12;4.10;;;1.48;;
54177;SDS011;40085;53.004;6.770;2023-03-23T09:56:40;6.57;;;1.45;;
54177;SDS011;40085;53.004;6.770;2023-03-23T09:59:12;5.55;;;1.40;;
54177;SDS011;40085;53.004;6.770;2023-03-23T10:01:41;8.70;;;1.95;;
54177;SDS011;40085;53.004;6.770;2023-03-23T10:04:12;14.23;;;2.42;;
54177;SDS011;40085;53.004;6.770;2023-03-23T10:06:40;9.90;;;1.30;;
54177;SDS011;40085;53.004;6.770;2023-03-23T10:09:05;9.85;;;1.73;;
54177;SDS011;40085;53.004;6.770;2023-03-23T10:16:42;3.53;;;1.00;;
54177;SDS011;40085;53.004;6.770;2023-03-23T10:19:20;11.05;;;1.52;;
54177;SDS011;40085;53.004;6.770;2023-03-23T10:22:08;5.25;;;1.67;;
54177;SDS011;40085;53.004;6.770;2023-03-23T10:24:36;5.68;;;1.15;;
54177;SDS011;40085;53.004;6.770;2023-03-23T10:30:02;5.00;;;1.15;;
54177;SDS011;40085;53.004;6.770;2023-03-23T10:32:44;4.32;;;1.50;;
54177;SDS011;40085;53.004;6.770;2023-03-23T10:35:32;5.57;;;1.52;;
54177;SDS011;40085;53.004;6.770;2023-03-23T10:38:21;5.28;;;0.90;;
54177;SDS011;40085;53.004;6.770;2023-03-23T10:40:54;4.10;;;1.23;;
54177;SDS011;40085;53.004;6.770;2023-03-23T10:43:25;6.28;;;0.93;;
54177;SDS011;40085;53.004;6.770;2023-03-23T10:45:56;5.93;;;0.68;;
54177;SDS011;40085;53.004;6.770;2023-03-23T10:48:30;5.07;;;1.33;;
54177;SDS011;40085;53.004;6.770;2023-03-23T10:50:59;3.38;;;1.38;;
54177;SDS011;40085;53.004;6.770;2023-03-23T10:53:34;8.10;;;1.25;;
54177;SDS011;40085;53.004;6.770;2023-03-23T10:56:02;4.75;;;1.55;;
54177;SDS011;40085;53.004;6.770;2023-03-23T10:58:30;2.22;;;0.75;;
54177;SDS011;40085;53.004;6.770;2023-03-23T11:00:59;5.63;;;1.00;;
54177;SDS011;40085;53.004;6.770;2023-03-23T11:03:29;7.32;;;1.20;;
54177;SDS011;40085;53.004;6.770;2023-03-23T11:06:06;6.47;;;0.95;;
54177;SDS011;40085;53.004;6.770;2023-03-23T11:11:59;4.75;;;1.13;;
54177;SDS011;40085;53.004;6.770;2023-03-23T11:14:25;5.13;;;1.15;;
54177;SDS011;40085;53.004;6.770;2023-03-23T11:17:00;7.00;;;0.85;;
54177;SDS011;40085;53.004;6.770;2023-03-23T11:19:28;5.07;;;1.25;;
54177;SDS011;40085;53.004;6.770;2023-03-23T11:24:41;3.25;;;0.95;;
54177;SDS011;40085;53.004;6.770;2023-03-23T11:27:08;1.80;;;0.82;;
54177;SDS011;40085;53.004;6.770;2023-03-23T11:29:35;3.25;;;0.88;;
54177;SDS011;40085;53.004;6.770;2023-03-23T11:32:09;5.50;;;1.45;;
54177;SDS011;40085;53.004;6.770;2023-03-23T11:37:12;1.30;;;0.63;;
54177;SDS011;40085;53.004;6.770;2023-03-23T11:39:54;2.85;;;0.70;;
54177;SDS011;40085;53.004;6.770;2023-03-23T11:42:25;5.20;;;0.85;;
54177;SDS011;40085;53.004;6.770;2023-03-23T11:53:34;2.38;;;0.77;;
54177;SDS011;40085;53.004;6.770;2023-03-23T11:58:52;4.57;;;0.93;;
54177;SDS011;40085;53.004;6.770;2023-03-23T12:09:50;2.13;;;1.15;;
54177;SDS011;40085;53.004;6.770;2023-03-23T12:12:41;1.98;;;0.90;;
54177;SDS011;40085;53.004;6.770;2023-03-23T12:15:24;5.20;;;1.23;;
54177;SDS011;40085;53.004;6.770;2023-03-23T12:20:51;2.30;;;0.93;;
54177;SDS011;40085;53.004;6.770;2023-03-23T12:23:42;4.00;;;0.63;;
54177;SDS011;40085;53.004;6.770;2023-03-23T12:27:22;4.38;;;1.02;;
54177;SDS011;40085;53.004;6.770;2023-03-23T12:44:09;5.40;;;1.27;;
54177;SDS011;40085;53.004;6.770;2023-03-23T12:49:09;3.38;;;1.00;;
54177;SDS011;40085;53.004;6.770;2023-03-23T12:51:52;2.33;;;0.98;;
54177;SDS011;40085;53.004;6.770;2023-03-23T12:54:31;4.97;;;1.10;;
54177;SDS011;40085;53.004;6.770;2023-03-23T12:59:47;4.55;;;1.10;;
54177;SDS011;40085;53.004;6.770;2023-03-23T13:02:31;4.60;;;0.70;;
54177;SDS011;40085;53.004;6.770;2023-03-23T13:05:09;6.13;;;0.75;;
54177;SDS011;40085;53.004;6.770;2023-03-23T13:07:43;4.10;;;1.55;;
54177;SDS011;40085;53.004;6.770;2023-03-23T13:10:17;3.08;;;0.65;;
54177;SDS011;40085;53.004;6.770;2023-03-23T13:12:47;5.50;;;1.15;;
54177;SDS011;40085;53.004;6.770;2023-03-23T13:17:56;1.73;;;1.08;;
54177;SDS011;40085;53.004;6.770;2023-03-23T13:28:49;1.50;;;0.70;;
54177;SDS011;40085;53.004;6.770;2023-03-23T13:33:52;7.32;;;1.42;;
54177;SDS011;40085;53.004;6.770;2023-03-23T13:38:59;3.25;;;0.85;;
54177;SDS011;40085;53.004;6.770;2023-03-23T13:41:26;1.67;;;0.77;;
54177;SDS011;40085;53.004;6.770;2023-03-23T13:43:52;2.67;;;0.90;;
54177;SDS011;40085;53.004;6.770;2023-03-23T13:46:30;4.28;;;1.20;;
54177;SDS011;40085;53.004;6.770;2023-03-23T13:49:16;2.78;;;0.90;;
54177;SDS011;40085;53.004;6.770;2023-03-23T13:56:42;5.13;;;0.90;;
54177;SDS011;40085;53.004;6.770;2023-03-23T14:01:52;3.35;;;1.00;;
54177;SDS011;40085;53.004;6.770;2023-03-23T14:04:20;8.18;;;1.20;;
54177;SDS011;40085;53.004;6.770;2023-03-23T14:06:48;3.00;;;1.60;;
54177;SDS011;40085;53.004;6.770;2023-03-23T14:11:49;4.32;;;1.02;;
54177;SDS011;40085;53.004;6.770;2023-03-23T14:14:29;5.80;;;1.88;;
54177;SDS011;40085;53.004;6.770;2023-03-23T14:19:41;3.63;;;0.90;;
54177;SDS011;40085;53.004;6.770;2023-03-23T14:22:27;2.83;;;0.63;;
54177;SDS011;40085;53.004;6.770;2023-03-23T14:25:02;6.23;;;0.80;;
54177;SDS011;40085;53.004;6.770;2023-03-23T14:27:38;2.63;;;0.70;;
54177;SDS011;40085;53.004;6.770;2023-03-23T14:30:05;7.57;;;1.50;;
54177;SDS011;40085;53.004;6.770;2023-03-23T14:32:33;6.50;;;1.00;;
54177;SDS011;40085;53.004;6.770;2023-03-23T14:35:01;4.70;;;1.42;;
54177;SDS011;40085;53.004;6.770;2023-03-23T14:37:31;3.10;;;1.15;;
54177;SDS011;40085;53.004;6.770;2023-03-23T14:40:00;7.60;;;1.30;;
54177;SDS011;40085;53.004;6.770;2023-03-23T14:42:30;5.68;;;1.30;;
54177;SDS011;40085;53.004;6.770;2023-03-23T14:44:59;3.00;;;0.65;;
54177;SDS011;40085;53.004;6.770;2023-03-23T14:47:35;3.83;;;1.00;;
54177;SDS011;40085;53.004;6.770;2023-03-23T14:50:18;4.85;;;1.30;;
54177;SDS011;40085;53.004;6.770;2023-03-23T14:52:53;6.10;;;1.55;;
54177;SDS011;40085;53.004;6.770;2023-03-23T14:55:22;2.15;;;0.80;;
54177;SDS011;40085;53.004;6.770;2023-03-23T14:57:51;5.50;;;0.77;;
54177;SDS011;40085;53.004;6.770;2023-03-23T15:00:21;7.57;;;1.02;;
54177;SDS011;40085;53.004;6.770;2023-03-23T15:05:30;2.15;;;0.70;;
54177;SDS011;40085;53.004;6.770;2023-03-23T15:08:05;2.40;;;1.20;;
54177;SDS011;40085;53.004;6.770;2023-03-23T15:10:32;8.65;;;1.50;;
54177;SDS011;40085;53.004;6.770;2023-03-23T15:12:58;5.20;;;0.98;;
54177;SDS011;40085;53.004;6.770;2023-03-23T15:15:28;5.03;;;1.25;;
54177;SDS011;40085;53.004;6.770;2023-03-23T15:17:55;4.03;;;0.90;;
54177;SDS011;40085;53.004;6.770;2023-03-23T15:20:24;5.13;;;1.02;;
54177;SDS011;40085;53.004;6.770;2023-03-23T15:22:52;4.60;;;0.90;;
54177;SDS011;40085;53.004;6.770;2023-03-23T15:28:21;3.55;;;0.80;;
54177;SDS011;40085;53.004;6.770;2023-03-23T15:30:48;3.33;;;0.95;;
54177;SDS011;40085;53.004;6.770;2023-03-23T15:33:19;4.43;;;1.13;;
54177;SDS011;40085;53.004;6.770;2023-03-23T15:35:53;3.05;;;0.57;;
54177;SDS011;40085;53.004;6.770;2023-03-23T15:38:24;3.22;;;0.80;;
54177;SDS011;40085;53.004;6.770;2023-03-23T15:40:57;4.55;;;1.10;;
54177;SDS011;40085;53.004;6.770;2023-03-23T15:43:26;4.60;;;1.02;;
54177;SDS011;40085;53.004;6.770;2023-03-23T15:48:28;5.38;;;1.05;;
54177;SDS011;40085;53.004;6.770;2023-03-23T15:50:55;1.85;;;0.75;;
54177;SDS011;40085;53.004;6.770;2023-03-23T15:55:55;5.38;;;1.27;;
54177;SDS011;40085;53.004;6.770;2023-03-23T15:58:20;2.97;;;0.93;;
54177;SDS011;40085;53.004;6.770;2023-03-23T16:00:46;2.03;;;0.77;;
54177;SDS011;40085;53.004;6.770;2023-03-23T16:03:17;2.03;;;0.73;;
54177;SDS011;40085;53.004;6.770;2023-03-23T16:05:51;3.28;;;0.90;;
54177;SDS011;40085;53.004;6.770;2023-03-23T16:08:18;2.33;;;1.38;;
54177;SDS011;40085;53.004;6.770;2023-03-23T16:10:44;1.52;;;0.60;;
54177;SDS011;40085;53.004;6.770;2023-03-23T16:13:10;2.30;;;0.70;;
54177;SDS011;40085;53.004;6.770;2023-03-23T16:15:35;4.00;;;0.88;;
54177;SDS011;40085;53.004;6.770;2023-03-23T16:18:01;6.18;;;1.13;;
54177;SDS011;40085;53.004;6.770;2023-03-23T16:20:27;4.50;;;1.15;;
54177;SDS011;40085;53.004;6.770;2023-03-23T16:22:54;3.25;;;0.63;;
54177;SDS011;40085;53.004;6.770;2023-03-23T16:25:20;5.15;;;1.20;;
54177;SDS011;40085;53.004;6.770;2023-03-23T16:27:46;3.00;;;1.02;;
54177;SDS011;40085;53.004;6.770;2023-03-23T16:32:45;3.47;;;0.95;;
54177;SDS011;40085;53.004;6.770;2023-03-23T16:35:11;4.30;;;1.02;;
54177;SDS011;40085;53.004;6.770;2023-03-23T16:37:38;4.55;;;1.23;;
54177;SDS011;40085;53.004;6.770;2023-03-23T16:40:18;4.18;;;0.77;;
54177;SDS011;40085;53.004;6.770;2023-03-23T16:42:45;4.93;;;1.20;;
54177;SDS011;40085;53.004;6.770;2023-03-23T16:45:12;1.95;;;0.77;;
54177;SDS011;40085;53.004;6.770;2023-03-23T16:47:38;3.65;;;1.02;;
54177;SDS011;40085;53.004;6.770;2023-03-23T16:50:06;5.72;;;0.90;;
54177;SDS011;40085;53.004;6.770;2023-03-23T16:52:35;4.93;;;1.17;;
54177;SDS011;40085;53.004;6.770;2023-03-23T16:55:06;4.10;;;1.50;;
54177;SDS011;40085;53.004;6.770;2023-03-23T16:57:33;4.30;;;1.10;;
54177;SDS011;40085;53.004;6.770;2023-03-23T17:00:02;2.88;;;1.13;;
54177;SDS011;40085;53.004;6.770;2023-03-23T17:02:30;4.43;;;1.20;;
54177;SDS011;40085;53.004;6.770;2023-03-23T17:04:56;2.97;;;0.70;;
54177;SDS011;40085;53.004;6.770;2023-03-23T17:07:22;6.07;;;2.15;;